Baie Comeau Airport

CYBC | YBC

Baie-Comeau , Quebec , Canada

Thursday, October 24th, 2019 | 01:55

Weather

CYBC 240553Z AUTO 25010KT 2 1/4SM BR OVC002 06/06 A2978 RMK SLP088

Charts

No Charts Available

Gates

No Gates Available

Runways

1 Available

Events

No events for this airport


New event